sensor_id;sensor_type;location;lat;lon;timestamp;P1;durP1;ratioP1;P2;durP2;ratioP2
33094;SDS011;19459;53.044;8.910;2022-10-16T00:01:26;3.63;;;2.45;;
33094;SDS011;19459;53.044;8.910;2022-10-16T00:03:55;10.13;;;2.20;;
33094;SDS011;19459;53.044;8.910;2022-10-16T00:06:23;5.45;;;2.15;;
33094;SDS011;19459;53.044;8.910;2022-10-16T00:08:50;6.78;;;1.98;;
33094;SDS011;19459;53.044;8.910;2022-10-16T00:11:27;2.55;;;1.55;;
33094;SDS011;19459;53.044;8.910;2022-10-16T00:14:06;8.95;;;2.30;;
33094;SDS011;19459;53.044;8.910;2022-10-16T00:16:36;5.93;;;2.30;;
33094;SDS011;19459;53.044;8.910;2022-10-16T00:19:02;7.85;;;2.13;;
33094;SDS011;19459;53.044;8.910;2022-10-16T00:21:29;6.13;;;1.95;;
33094;SDS011;19459;53.044;8.910;2022-10-16T00:24:00;4.47;;;1.90;;
33094;SDS011;19459;53.044;8.910;2022-10-16T00:26:30;6.43;;;2.13;;
33094;SDS011;19459;53.044;8.910;2022-10-16T00:29:00;6.18;;;1.80;;
33094;SDS011;19459;53.044;8.910;2022-10-16T00:31:27;7.60;;;1.67;;
33094;SDS011;19459;53.044;8.910;2022-10-16T00:33:54;5.80;;;1.65;;
33094;SDS011;19459;53.044;8.910;2022-10-16T00:36:21;11.50;;;2.63;;
33094;SDS011;19459;53.044;8.910;2022-10-16T00:38:49;6.10;;;1.77;;
33094;SDS011;19459;53.044;8.910;2022-10-16T00:41:20;4.72;;;2.33;;
33094;SDS011;19459;53.044;8.910;2022-10-16T00:46:22;7.15;;;1.75;;
33094;SDS011;19459;53.044;8.910;2022-10-16T00:51:38;3.05;;;1.83;;
33094;SDS011;19459;53.044;8.910;2022-10-16T00:54:08;7.68;;;2.03;;
33094;SDS011;19459;53.044;8.910;2022-10-16T00:56:48;8.65;;;3.75;;
33094;SDS011;19459;53.044;8.910;2022-10-16T00:59:22;3.97;;;1.75;;
33094;SDS011;19459;53.044;8.910;2022-10-16T01:01:52;3.53;;;1.80;;
33094;SDS011;19459;53.044;8.910;2022-10-16T01:04:19;10.30;;;2.20;;
33094;SDS011;19459;53.044;8.910;2022-10-16T01:06:54;6.65;;;2.70;;
33094;SDS011;19459;53.044;8.910;2022-10-16T01:13:10;5.28;;;1.80;;
33094;SDS011;19459;53.044;8.910;2022-10-16T01:15:53;6.97;;;2.70;;
33094;SDS011;19459;53.044;8.910;2022-10-16T01:18:26;4.25;;;2.13;;
33094;SDS011;19459;53.044;8.910;2022-10-16T01:21:01;7.97;;;2.67;;
33094;SDS011;19459;53.044;8.910;2022-10-16T01:29:26;7.35;;;2.20;;
33094;SDS011;19459;53.044;8.910;2022-10-16T01:35:21;6.53;;;2.50;;
33094;SDS011;19459;53.044;8.910;2022-10-16T01:38:17;7.95;;;3.03;;
33094;SDS011;19459;53.044;8.910;2022-10-16T01:40:53;6.95;;;2.53;;
33094;SDS011;19459;53.044;8.910;2022-10-16T01:43:28;18.27;;;3.38;;
33094;SDS011;19459;53.044;8.910;2022-10-16T01:46:01;11.07;;;3.25;;
33094;SDS011;19459;53.044;8.910;2022-10-16T01:48:27;3.55;;;2.63;;
33094;SDS011;19459;53.044;8.910;2022-10-16T01:50:58;3.97;;;2.72;;
33094;SDS011;19459;53.044;8.910;2022-10-16T01:53:30;6.17;;;3.00;;
33094;SDS011;19459;53.044;8.910;2022-10-16T01:55:56;6.85;;;2.47;;
33094;SDS011;19459;53.044;8.910;2022-10-16T01:58:24;5.57;;;2.63;;
33094;SDS011;19459;53.044;8.910;2022-10-16T02:00:52;11.23;;;3.30;;
33094;SDS011;19459;53.044;8.910;2022-10-16T02:03:20;9.77;;;2.83;;
33094;SDS011;19459;53.044;8.910;2022-10-16T02:05:47;6.85;;;3.40;;
33094;SDS011;19459;53.044;8.910;2022-10-16T02:08:18;5.88;;;2.50;;
33094;SDS011;19459;53.044;8.910;2022-10-16T02:10:46;5.22;;;3.08;;
33094;SDS011;19459;53.044;8.910;2022-10-16T02:13:14;5.95;;;2.78;;
33094;SDS011;19459;53.044;8.910;2022-10-16T02:15:47;5.20;;;2.85;;
33094;SDS011;19459;53.044;8.910;2022-10-16T02:18:13;5.03;;;2.83;;
33094;SDS011;19459;53.044;8.910;2022-10-16T02:20:44;7.85;;;3.38;;
33094;SDS011;19459;53.044;8.910;2022-10-16T02:23:20;8.52;;;2.83;;
33094;SDS011;19459;53.044;8.910;2022-10-16T02:25:58;10.48;;;3.20;;
33094;SDS011;19459;53.044;8.910;2022-10-16T02:28:31;6.93;;;2.35;;
33094;SDS011;19459;53.044;8.910;2022-10-16T02:31:22;7.30;;;2.97;;
33094;SDS011;19459;53.044;8.910;2022-10-16T02:33:54;8.57;;;2.90;;
33094;SDS011;19459;53.044;8.910;2022-10-16T02:36:23;4.70;;;3.47;;
33094;SDS011;19459;53.044;8.910;2022-10-16T02:38:50;6.63;;;2.55;;
33094;SDS011;19459;53.044;8.910;2022-10-16T02:41:17;6.15;;;2.83;;
33094;SDS011;19459;53.044;8.910;2022-10-16T02:43:43;9.23;;;3.35;;
33094;SDS011;19459;53.044;8.910;2022-10-16T02:46:09;9.60;;;2.83;;
33094;SDS011;19459;53.044;8.910;2022-10-16T02:48:34;6.22;;;3.22;;
33094;SDS011;19459;53.044;8.910;2022-10-16T02:51:00;5.75;;;3.00;;
33094;SDS011;19459;53.044;8.910;2022-10-16T02:53:26;6.40;;;2.47;;
33094;SDS011;19459;53.044;8.910;2022-10-16T02:55:52;13.00;;;2.95;;
33094;SDS011;19459;53.044;8.910;2022-10-16T02:58:17;11.35;;;3.28;;
33094;SDS011;19459;53.044;8.910;2022-10-16T03:00:43;4.70;;;3.25;;
33094;SDS011;19459;53.044;8.910;2022-10-16T03:03:09;4.63;;;3.30;;
33094;SDS011;19459;53.044;8.910;2022-10-16T03:05:35;5.80;;;3.10;;
33094;SDS011;19459;53.044;8.910;2022-10-16T03:08:00;8.65;;;3.47;;
33094;SDS011;19459;53.044;8.910;2022-10-16T03:10:26;7.35;;;3.22;;
33094;SDS011;19459;53.044;8.910;2022-10-16T03:12:52;7.40;;;3.63;;
33094;SDS011;19459;53.044;8.910;2022-10-16T03:15:18;6.95;;;4.38;;
33094;SDS011;19459;53.044;8.910;2022-10-16T03:17:44;7.25;;;3.72;;
33094;SDS011;19459;53.044;8.910;2022-10-16T03:20:10;11.52;;;3.97;;
33094;SDS011;19459;53.044;8.910;2022-10-16T03:22:36;11.13;;;5.30;;
33094;SDS011;19459;53.044;8.910;2022-10-16T03:25:01;10.48;;;4.05;;
33094;SDS011;19459;53.044;8.910;2022-10-16T03:27:28;9.82;;;4.72;;
33094;SDS011;19459;53.044;8.910;2022-10-16T03:29:53;11.20;;;4.95;;
33094;SDS011;19459;53.044;8.910;2022-10-16T03:32:19;10.45;;;4.90;;
33094;SDS011;19459;53.044;8.910;2022-10-16T03:34:45;10.13;;;5.78;;
33094;SDS011;19459;53.044;8.910;2022-10-16T03:37:11;19.38;;;5.78;;
33094;SDS011;19459;53.044;8.910;2022-10-16T03:39:37;11.18;;;6.43;;
33094;SDS011;19459;53.044;8.910;2022-10-16T03:42:02;15.43;;;6.35;;
33094;SDS011;19459;53.044;8.910;2022-10-16T03:44:28;10.02;;;7.18;;
33094;SDS011;19459;53.044;8.910;2022-10-16T03:46:54;14.05;;;7.63;;
33094;SDS011;19459;53.044;8.910;2022-10-16T03:49:19;14.68;;;6.63;;
33094;SDS011;19459;53.044;8.910;2022-10-16T03:51:45;16.63;;;7.20;;
33094;SDS011;19459;53.044;8.910;2022-10-16T03:54:11;15.27;;;8.80;;
33094;SDS011;19459;53.044;8.910;2022-10-16T03:56:37;16.02;;;8.07;;
33094;SDS011;19459;53.044;8.910;2022-10-16T03:59:03;11.70;;;7.30;;
33094;SDS011;19459;53.044;8.910;2022-10-16T04:01:29;13.50;;;7.75;;
33094;SDS011;19459;53.044;8.910;2022-10-16T04:03:54;21.13;;;8.25;;
33094;SDS011;19459;53.044;8.910;2022-10-16T04:06:20;23.27;;;9.40;;
33094;SDS011;19459;53.044;8.910;2022-10-16T04:08:46;22.30;;;8.75;;
33094;SDS011;19459;53.044;8.910;2022-10-16T04:11:11;21.20;;;9.10;;
33094;SDS011;19459;53.044;8.910;2022-10-16T04:13:37;14.65;;;8.77;;
33094;SDS011;19459;53.044;8.910;2022-10-16T04:16:03;17.45;;;9.02;;
33094;SDS011;19459;53.044;8.910;2022-10-16T04:18:29;18.13;;;8.43;;
33094;SDS011;19459;53.044;8.910;2022-10-16T04:20:54;14.15;;;8.88;;
33094;SDS011;19459;53.044;8.910;2022-10-16T04:23:20;17.50;;;9.35;;
33094;SDS011;19459;53.044;8.910;2022-10-16T04:25:47;16.05;;;9.70;;
33094;SDS011;19459;53.044;8.910;2022-10-16T04:28:13;26.50;;;10.00;;
33094;SDS011;19459;53.044;8.910;2022-10-16T04:30:39;20.55;;;9.50;;
33094;SDS011;19459;53.044;8.910;2022-10-16T04:33:05;17.42;;;9.73;;
33094;SDS011;19459;53.044;8.910;2022-10-16T04:35:31;21.73;;;9.07;;
33094;SDS011;19459;53.044;8.910;2022-10-16T04:37:57;19.58;;;10.15;;
33094;SDS011;19459;53.044;8.910;2022-10-16T04:40:23;14.75;;;9.82;;
33094;SDS011;19459;53.044;8.910;2022-10-16T04:42:49;22.35;;;9.05;;
33094;SDS011;19459;53.044;8.910;2022-10-16T04:45:15;22.60;;;10.80;;
33094;SDS011;19459;53.044;8.910;2022-10-16T04:47:40;15.88;;;9.52;;
33094;SDS011;19459;53.044;8.910;2022-10-16T04:50:06;18.52;;;10.15;;
33094;SDS011;19459;53.044;8.910;2022-10-16T04:52:33;16.45;;;10.73;;
33094;SDS011;19459;53.044;8.910;2022-10-16T04:54:58;16.83;;;10.07;;
33094;SDS011;19459;53.044;8.910;2022-10-16T04:57:27;17.10;;;9.82;;
33094;SDS011;19459;53.044;8.910;2022-10-16T04:59:54;18.77;;;9.77;;
33094;SDS011;19459;53.044;8.910;2022-10-16T05:02:20;16.85;;;10.07;;
33094;SDS011;19459;53.044;8.910;2022-10-16T05:04:46;17.83;;;10.88;;
33094;SDS011;19459;53.044;8.910;2022-10-16T05:07:11;15.85;;;10.02;;
33094;SDS011;19459;53.044;8.910;2022-10-16T05:09:37;22.92;;;11.00;;
33094;SDS011;19459;53.044;8.910;2022-10-16T05:12:03;27.63;;;11.48;;
33094;SDS011;19459;53.044;8.910;2022-10-16T05:14:29;25.88;;;11.55;;
33094;SDS011;19459;53.044;8.910;2022-10-16T05:16:55;21.45;;;11.27;;
33094;SDS011;19459;53.044;8.910;2022-10-16T05:19:20;19.88;;;10.80;;
33094;SDS011;19459;53.044;8.910;2022-10-16T05:21:46;25.17;;;12.45;;
33094;SDS011;19459;53.044;8.910;2022-10-16T05:24:12;22.88;;;12.85;;
33094;SDS011;19459;53.044;8.910;2022-10-16T05:26:38;18.85;;;12.38;;
33094;SDS011;19459;53.044;8.910;2022-10-16T05:29:03;24.80;;;14.90;;
33094;SDS011;19459;53.044;8.910;2022-10-16T05:31:29;20.23;;;12.50;;
33094;SDS011;19459;53.044;8.910;2022-10-16T05:33:58;24.33;;;13.60;;
33094;SDS011;19459;53.044;8.910;2022-10-16T05:36:25;27.88;;;13.73;;
33094;SDS011;19459;53.044;8.910;2022-10-16T05:38:51;25.00;;;12.00;;
33094;SDS011;19459;53.044;8.910;2022-10-16T05:41:17;21.77;;;12.35;;
33094;SDS011;19459;53.044;8.910;2022-10-16T05:43:46;21.08;;;12.40;;
33094;SDS011;19459;53.044;8.910;2022-10-16T05:46:13;20.48;;;11.85;;
33094;SDS011;19459;53.044;8.910;2022-10-16T05:48:39;22.67;;;12.88;;
33094;SDS011;19459;53.044;8.910;2022-10-16T05:51:06;23.65;;;12.48;;
33094;SDS011;19459;53.044;8.910;2022-10-16T05:53:36;20.95;;;11.35;;
33094;SDS011;19459;53.044;8.910;2022-10-16T05:56:03;19.00;;;12.52;;
33094;SDS011;19459;53.044;8.910;2022-10-16T05:58:32;26.65;;;11.98;;
33094;SDS011;19459;53.044;8.910;2022-10-16T06:01:01;20.85;;;12.48;;
33094;SDS011;19459;53.044;8.910;2022-10-16T06:03:34;21.23;;;12.57;;
33094;SDS011;19459;53.044;8.910;2022-10-16T06:06:07;19.42;;;11.60;;
33094;SDS011;19459;53.044;8.910;2022-10-16T06:08:34;23.38;;;12.32;;
33094;SDS011;19459;53.044;8.910;2022-10-16T06:11:01;19.13;;;12.52;;
33094;SDS011;19459;53.044;8.910;2022-10-16T06:13:33;21.40;;;12.93;;
33094;SDS011;19459;53.044;8.910;2022-10-16T06:16:00;24.65;;;13.18;;
33094;SDS011;19459;53.044;8.910;2022-10-16T06:18:27;22.67;;;12.65;;
33094;SDS011;19459;53.044;8.910;2022-10-16T06:20:54;22.73;;;12.27;;
33094;SDS011;19459;53.044;8.910;2022-10-16T06:23:20;23.02;;;11.55;;
33094;SDS011;19459;53.044;8.910;2022-10-16T06:25:46;15.70;;;10.75;;
33094;SDS011;19459;53.044;8.910;2022-10-16T06:28:15;19.17;;;10.82;;
33094;SDS011;19459;53.044;8.910;2022-10-16T06:30:41;25.38;;;10.98;;
33094;SDS011;19459;53.044;8.910;2022-10-16T06:33:10;20.48;;;10.35;;
33094;SDS011;19459;53.044;8.910;2022-10-16T06:35:37;16.73;;;10.23;;
33094;SDS011;19459;53.044;8.910;2022-10-16T06:38:02;15.57;;;10.38;;
33094;SDS011;19459;53.044;8.910;2022-10-16T06:40:28;14.43;;;9.15;;
33094;SDS011;19459;53.044;8.910;2022-10-16T06:42:54;15.57;;;9.55;;
33094;SDS011;19459;53.044;8.910;2022-10-16T06:45:20;16.25;;;10.52;;
33094;SDS011;19459;53.044;8.910;2022-10-16T06:47:46;13.23;;;9.23;;
33094;SDS011;19459;53.044;8.910;2022-10-16T06:50:12;19.83;;;10.32;;
33094;SDS011;19459;53.044;8.910;2022-10-16T06:52:37;17.60;;;10.05;;
33094;SDS011;19459;53.044;8.910;2022-10-16T06:55:03;14.02;;;9.52;;
33094;SDS011;19459;53.044;8.910;2022-10-16T06:57:30;15.00;;;8.70;;
33094;SDS011;19459;53.044;8.910;2022-10-16T06:59:56;12.05;;;8.68;;
33094;SDS011;19459;53.044;8.910;2022-10-16T07:02:22;13.40;;;9.15;;
33094;SDS011;19459;53.044;8.910;2022-10-16T07:04:47;13.48;;;8.52;;
33094;SDS011;19459;53.044;8.910;2022-10-16T07:07:13;15.57;;;8.05;;
33094;SDS011;19459;53.044;8.910;2022-10-16T07:09:39;10.00;;;7.28;;
33094;SDS011;19459;53.044;8.910;2022-10-16T07:12:05;14.35;;;8.48;;
33094;SDS011;19459;53.044;8.910;2022-10-16T07:14:31;13.55;;;7.95;;
33094;SDS011;19459;53.044;8.910;2022-10-16T07:16:57;12.98;;;8.68;;
33094;SDS011;19459;53.044;8.910;2022-10-16T07:19:22;17.77;;;8.35;;
33094;SDS011;19459;53.044;8.910;2022-10-16T07:21:48;21.17;;;8.40;;
33094;SDS011;19459;53.044;8.910;2022-10-16T07:24:14;14.35;;;8.13;;
33094;SDS011;19459;53.044;8.910;2022-10-16T07:26:42;10.35;;;6.93;;
33094;SDS011;19459;53.044;8.910;2022-10-16T07:29:14;12.77;;;7.68;;
33094;SDS011;19459;53.044;8.910;2022-10-16T07:31:45;13.90;;;7.30;;
33094;SDS011;19459;53.044;8.910;2022-10-16T07:34:14;10.20;;;7.38;;
33094;SDS011;19459;53.044;8.910;2022-10-16T07:36:41;8.85;;;6.68;;
33094;SDS011;19459;53.044;8.910;2022-10-16T07:39:07;11.20;;;6.38;;
33094;SDS011;19459;53.044;8.910;2022-10-16T07:41:33;9.40;;;6.60;;
33094;SDS011;19459;53.044;8.910;2022-10-16T07:44:01;9.95;;;7.05;;
33094;SDS011;19459;53.044;8.910;2022-10-16T07:46:28;9.70;;;5.55;;
33094;SDS011;19459;53.044;8.910;2022-10-16T07:48:55;7.25;;;4.88;;
33094;SDS011;19459;53.044;8.910;2022-10-16T07:51:21;13.05;;;5.30;;
33094;SDS011;19459;53.044;8.910;2022-10-16T07:53:49;8.68;;;5.13;;
33094;SDS011;19459;53.044;8.910;2022-10-16T07:56:16;9.05;;;5.20;;
33094;SDS011;19459;53.044;8.910;2022-10-16T07:58:43;8.63;;;4.97;;
33094;SDS011;19459;53.044;8.910;2022-10-16T08:01:10;9.38;;;5.55;;
33094;SDS011;19459;53.044;8.910;2022-10-16T08:03:41;8.77;;;4.95;;
33094;SDS011;19459;53.044;8.910;2022-10-16T08:06:12;8.23;;;5.20;;
33094;SDS011;19459;53.044;8.910;2022-10-16T08:08:38;10.50;;;4.63;;
33094;SDS011;19459;53.044;8.910;2022-10-16T08:11:03;6.85;;;4.45;;
33094;SDS011;19459;53.044;8.910;2022-10-16T08:13:30;6.72;;;4.07;;
33094;SDS011;19459;53.044;8.910;2022-10-16T08:15:56;6.82;;;4.13;;
33094;SDS011;19459;53.044;8.910;2022-10-16T08:18:22;10.02;;;4.38;;
33094;SDS011;19459;53.044;8.910;2022-10-16T08:20:48;6.85;;;4.03;;
33094;SDS011;19459;53.044;8.910;2022-10-16T08:23:25;7.38;;;4.20;;
33094;SDS011;19459;53.044;8.910;2022-10-16T08:25:52;6.43;;;4.00;;
33094;SDS011;19459;53.044;8.910;2022-10-16T08:28:22;6.55;;;4.57;;
33094;SDS011;19459;53.044;8.910;2022-10-16T08:30:48;8.27;;;3.67;;
33094;SDS011;19459;53.044;8.910;2022-10-16T08:33:15;7.20;;;4.20;;
33094;SDS011;19459;53.044;8.910;2022-10-16T08:35:41;8.10;;;3.80;;
33094;SDS011;19459;53.044;8.910;2022-10-16T08:38:07;6.32;;;3.40;;
33094;SDS011;19459;53.044;8.910;2022-10-16T08:40:33;5.90;;;3.20;;
33094;SDS011;19459;53.044;8.910;2022-10-16T08:45:51;6.05;;;3.65;;
33094;SDS011;19459;53.044;8.910;2022-10-16T08:48:57;7.38;;;4.00;;
33094;SDS011;19459;53.044;8.910;2022-10-16T08:51:25;7.97;;;2.95;;
33094;SDS011;19459;53.044;8.910;2022-10-16T08:53:56;8.32;;;3.65;;
33094;SDS011;19459;53.044;8.910;2022-10-16T08:56:24;6.75;;;2.97;;
33094;SDS011;19459;53.044;8.910;2022-10-16T08:58:51;3.58;;;2.55;;
33094;SDS011;19459;53.044;8.910;2022-10-16T09:01:20;6.65;;;2.60;;
33094;SDS011;19459;53.044;8.910;2022-10-16T09:15:52;6.22;;;2.20;;
33094;SDS011;19459;53.044;8.910;2022-10-16T09:19:09;3.83;;;1.85;;
33094;SDS011;19459;53.044;8.910;2022-10-16T09:21:49;9.00;;;2.00;;
33094;SDS011;19459;53.044;8.910;2022-10-16T09:26:44;3.40;;;1.60;;
33094;SDS011;19459;53.044;8.910;2022-10-16T09:29:11;9.90;;;2.38;;
33094;SDS011;19459;53.044;8.910;2022-10-16T09:31:38;9.05;;;2.78;;
33094;SDS011;19459;53.044;8.910;2022-10-16T09:34:04;8.43;;;1.95;;
33094;SDS011;19459;53.044;8.910;2022-10-16T09:36:35;8.25;;;1.65;;
33094;SDS011;19459;53.044;8.910;2022-10-16T09:39:10;4.07;;;1.50;;
33094;SDS011;19459;53.044;8.910;2022-10-16T09:41:37;2.65;;;1.33;;
33094;SDS011;19459;53.044;8.910;2022-10-16T09:44:19;6.93;;;1.42;;
33094;SDS011;19459;53.044;8.910;2022-10-16T09:47:03;3.13;;;1.00;;
33094;SDS011;19459;53.044;8.910;2022-10-16T09:49:53;3.05;;;1.42;;
33094;SDS011;19459;53.044;8.910;2022-10-16T09:52:43;4.45;;;1.40;;
33094;SDS011;19459;53.044;8.910;2022-10-16T09:55:13;7.65;;;2.10;;
33094;SDS011;19459;53.044;8.910;2022-10-16T09:57:50;5.75;;;1.23;;
33094;SDS011;19459;53.044;8.910;2022-10-16T10:00:19;8.55;;;1.42;;
33094;SDS011;19459;53.044;8.910;2022-10-16T10:02:46;6.32;;;2.28;;
33094;SDS011;19459;53.044;8.910;2022-10-16T10:05:31;12.50;;;2.50;;
33094;SDS011;19459;53.044;8.910;2022-10-16T10:07:58;5.47;;;1.55;;
33094;SDS011;19459;53.044;8.910;2022-10-16T10:10:33;8.25;;;1.20;;
33094;SDS011;19459;53.044;8.910;2022-10-16T10:13:20;7.13;;;1.60;;
33094;SDS011;19459;53.044;8.910;2022-10-16T10:15:50;6.95;;;1.35;;
33094;SDS011;19459;53.044;8.910;2022-10-16T10:18:18;4.85;;;1.55;;
33094;SDS011;19459;53.044;8.910;2022-10-16T10:20:56;3.95;;;1.17;;
33094;SDS011;19459;53.044;8.910;2022-10-16T10:23:30;4.82;;;1.42;;
33094;SDS011;19459;53.044;8.910;2022-10-16T10:26:00;8.50;;;1.63;;
33094;SDS011;19459;53.044;8.910;2022-10-16T10:31:26;11.00;;;2.03;;
33094;SDS011;19459;53.044;8.910;2022-10-16T10:36:45;4.63;;;1.20;;
33094;SDS011;19459;53.044;8.910;2022-10-16T10:39:22;3.72;;;1.38;;
33094;SDS011;19459;53.044;8.910;2022-10-16T10:50:50;3.45;;;1.33;;
33094;SDS011;19459;53.044;8.910;2022-10-16T10:59:50;11.55;;;1.75;;
33094;SDS011;19459;53.044;8.910;2022-10-16T11:10:57;4.95;;;1.40;;
33094;SDS011;19459;53.044;8.910;2022-10-16T11:13:28;4.45;;;1.25;;
33094;SDS011;19459;53.044;8.910;2022-10-16T11:16:15;4.40;;;1.33;;
33094;SDS011;19459;53.044;8.910;2022-10-16T11:21:20;10.10;;;1.33;;
33094;SDS011;19459;53.044;8.910;2022-10-16T11:26:26;8.90;;;1.52;;
33094;SDS011;19459;53.044;8.910;2022-10-16T11:28:58;7.07;;;1.85;;
33094;SDS011;19459;53.044;8.910;2022-10-16T11:31:40;5.82;;;1.38;;
33094;SDS011;19459;53.044;8.910;2022-10-16T11:37:14;8.23;;;1.02;;
33094;SDS011;19459;53.044;8.910;2022-10-16T11:39:47;5.93;;;1.33;;
33094;SDS011;19459;53.044;8.910;2022-10-16T11:42:37;4.78;;;1.38;;
33094;SDS011;19459;53.044;8.910;2022-10-16T11:45:14;5.13;;;1.67;;
33094;SDS011;19459;53.044;8.910;2022-10-16T11:48:24;4.85;;;1.30;;
33094;SDS011;19459;53.044;8.910;2022-10-16T11:54:02;4.10;;;1.30;;
33094;SDS011;19459;53.044;8.910;2022-10-16T11:56:55;7.45;;;1.60;;
33094;SDS011;19459;53.044;8.910;2022-10-16T12:08:16;6.32;;;1.65;;
33094;SDS011;19459;53.044;8.910;2022-10-16T12:10:44;6.90;;;1.50;;
33094;SDS011;19459;53.044;8.910;2022-10-16T12:16:19;6.35;;;1.60;;
33094;SDS011;19459;53.044;8.910;2022-10-16T12:18:48;2.92;;;1.10;;
33094;SDS011;19459;53.044;8.910;2022-10-16T12:21:15;5.57;;;1.25;;
33094;SDS011;19459;53.044;8.910;2022-10-16T12:26:30;3.55;;;1.13;;
33094;SDS011;19459;53.044;8.910;2022-10-16T12:31:54;3.22;;;1.13;;
33094;SDS011;19459;53.044;8.910;2022-10-16T12:36:55;6.40;;;1.25;;
33094;SDS011;19459;53.044;8.910;2022-10-16T12:39:33;9.55;;;1.75;;
33094;SDS011;19459;53.044;8.910;2022-10-16T12:42:05;6.70;;;1.70;;
33094;SDS011;19459;53.044;8.910;2022-10-16T12:44:47;4.43;;;1.08;;
33094;SDS011;19459;53.044;8.910;2022-10-16T12:47:24;4.82;;;1.52;;
33094;SDS011;19459;53.044;8.910;2022-10-16T12:50:03;6.28;;;1.20;;
33094;SDS011;19459;53.044;8.910;2022-10-16T12:53:20;6.28;;;1.27;;
33094;SDS011;19459;53.044;8.910;2022-10-16T13:10:08;6.38;;;1.10;;
33094;SDS011;19459;53.044;8.910;2022-10-16T13:29:30;5.03;;;1.42;;
33094;SDS011;19459;53.044;8.910;2022-10-16T13:31:57;4.03;;;1.10;;
33094;SDS011;19459;53.044;8.910;2022-10-16T13:34:24;6.60;;;1.85;;
33094;SDS011;19459;53.044;8.910;2022-10-16T13:36:51;6.32;;;1.38;;
33094;SDS011;19459;53.044;8.910;2022-10-16T13:42:14;8.98;;;2.47;;
33094;SDS011;19459;53.044;8.910;2022-10-16T13:44:49;8.60;;;2.37;;
33094;SDS011;19459;53.044;8.910;2022-10-16T13:47:19;8.10;;;2.05;;
33094;SDS011;19459;53.044;8.910;2022-10-16T13:49:58;10.45;;;2.30;;
33094;SDS011;19459;53.044;8.910;2022-10-16T13:52:31;7.40;;;3.78;;
33094;SDS011;19459;53.044;8.910;2022-10-16T13:54:57;5.32;;;2.50;;
33094;SDS011;19459;53.044;8.910;2022-10-16T13:57:23;8.55;;;3.90;;
33094;SDS011;19459;53.044;8.910;2022-10-16T13:59:50;5.05;;;1.38;;
33094;SDS011;19459;53.044;8.910;2022-10-16T14:02:25;8.63;;;1.30;;
33094;SDS011;19459;53.044;8.910;2022-10-16T14:04:56;9.90;;;2.05;;
33094;SDS011;19459;53.044;8.910;2022-10-16T14:07:28;6.35;;;1.80;;
33094;SDS011;19459;53.044;8.910;2022-10-16T14:10:05;7.85;;;1.40;;
33094;SDS011;19459;53.044;8.910;2022-10-16T14:12:45;8.20;;;1.90;;
33094;SDS011;19459;53.044;8.910;2022-10-16T14:15:23;6.97;;;1.30;;
33094;SDS011;19459;53.044;8.910;2022-10-16T14:17:50;4.32;;;1.20;;
33094;SDS011;19459;53.044;8.910;2022-10-16T14:20:17;7.57;;;1.92;;
33094;SDS011;19459;53.044;8.910;2022-10-16T14:22:44;6.57;;;1.52;;
33094;SDS011;19459;53.044;8.910;2022-10-16T14:28:05;11.18;;;1.83;;
33094;SDS011;19459;53.044;8.910;2022-10-16T14:30:57;4.75;;;1.63;;
33094;SDS011;19459;53.044;8.910;2022-10-16T14:38:35;5.80;;;1.50;;
33094;SDS011;19459;53.044;8.910;2022-10-16T14:41:03;14.38;;;6.40;;
33094;SDS011;19459;53.044;8.910;2022-10-16T14:45:59;7.95;;;1.98;;
33094;SDS011;19459;53.044;8.910;2022-10-16T14:48:27;8.85;;;1.52;;
33094;SDS011;19459;53.044;8.910;2022-10-16T14:50:52;8.77;;;2.00;;
33094;SDS011;19459;53.044;8.910;2022-10-16T14:53:18;10.93;;;2.00;;
33094;SDS011;19459;53.044;8.910;2022-10-16T14:55:44;10.90;;;2.45;;
33094;SDS011;19459;53.044;8.910;2022-10-16T14:58:20;10.02;;;2.28;;
33094;SDS011;19459;53.044;8.910;2022-10-16T15:00:48;11.02;;;2.20;;
33094;SDS011;19459;53.044;8.910;2022-10-16T15:03:14;10.05;;;2.90;;
33094;SDS011;19459;53.044;8.910;2022-10-16T15:05:40;6.50;;;1.60;;
33094;SDS011;19459;53.044;8.910;2022-10-16T15:08:06;9.65;;;3.75;;
33094;SDS011;19459;53.044;8.910;2022-10-16T15:10:33;8.35;;;1.90;;
33094;SDS011;19459;53.044;8.910;2022-10-16T15:13:05;6.85;;;1.88;;
33094;SDS011;19459;53.044;8.910;2022-10-16T15:15:35;8.88;;;3.10;;
33094;SDS011;19459;53.044;8.910;2022-10-16T15:18:04;4.85;;;2.83;;
33094;SDS011;19459;53.044;8.910;2022-10-16T15:20:31;10.57;;;2.63;;
33094;SDS011;19459;53.044;8.910;2022-10-16T15:23:01;11.73;;;3.40;;
33094;SDS011;19459;53.044;8.910;2022-10-16T15:28:07;10.00;;;4.05;;
33094;SDS011;19459;53.044;8.910;2022-10-16T15:30:34;13.80;;;4.57;;
33094;SDS011;19459;53.044;8.910;2022-10-16T15:33:01;8.80;;;3.25;;
33094;SDS011;19459;53.044;8.910;2022-10-16T15:35:28;7.05;;;2.08;;
33094;SDS011;19459;53.044;8.910;2022-10-16T15:37:54;5.97;;;2.33;;
33094;SDS011;19459;53.044;8.910;2022-10-16T15:40:20;10.15;;;3.33;;
33094;SDS011;19459;53.044;8.910;2022-10-16T15:42:47;13.85;;;4.85;;
33094;SDS011;19459;53.044;8.910;2022-10-16T15:45:14;7.53;;;3.15;;
33094;SDS011;19459;53.044;8.910;2022-10-16T15:47:41;8.43;;;4.53;;
33094;SDS011;19459;53.044;8.910;2022-10-16T15:50:11;11.55;;;5.78;;
33094;SDS011;19459;53.044;8.910;2022-10-16T15:52:39;14.63;;;6.03;;
33094;SDS011;19459;53.044;8.910;2022-10-16T15:55:06;13.63;;;7.10;;
33094;SDS011;19459;53.044;8.910;2022-10-16T15:57:37;10.82;;;4.38;;
33094;SDS011;19459;53.044;8.910;2022-10-16T16:00:06;10.02;;;5.03;;
33094;SDS011;19459;53.044;8.910;2022-10-16T16:02:37;9.25;;;4.35;;
33094;SDS011;19459;53.044;8.910;2022-10-16T16:05:04;10.10;;;4.38;;
33094;SDS011;19459;53.044;8.910;2022-10-16T16:07:33;14.38;;;4.72;;
33094;SDS011;19459;53.044;8.910;2022-10-16T16:10:00;13.80;;;4.28;;
33094;SDS011;19459;53.044;8.910;2022-10-16T16:12:26;16.17;;;6.18;;
33094;SDS011;19459;53.044;8.910;2022-10-16T16:14:52;10.05;;;5.28;;
33094;SDS011;19459;53.044;8.910;2022-10-16T16:17:18;12.20;;;5.28;;
33094;SDS011;19459;53.044;8.910;2022-10-16T16:19:45;10.18;;;3.97;;
33094;SDS011;19459;53.044;8.910;2022-10-16T16:22:11;9.90;;;3.40;;
33094;SDS011;19459;53.044;8.910;2022-10-16T16:24:37;6.20;;;2.85;;
33094;SDS011;19459;53.044;8.910;2022-10-16T16:27:03;7.95;;;2.15;;
33094;SDS011;19459;53.044;8.910;2022-10-16T16:29:28;8.80;;;2.03;;
33094;SDS011;19459;53.044;8.910;2022-10-16T16:31:54;7.68;;;3.20;;
33094;SDS011;19459;53.044;8.910;2022-10-16T16:34:25;4.57;;;2.00;;
33094;SDS011;19459;53.044;8.910;2022-10-16T16:36:53;6.53;;;1.75;;
33094;SDS011;19459;53.044;8.910;2022-10-16T16:39:20;8.65;;;2.13;;
33094;SDS011;19459;53.044;8.910;2022-10-16T16:41:46;7.72;;;2.80;;
33094;SDS011;19459;53.044;8.910;2022-10-16T16:44:12;9.75;;;4.00;;
33094;SDS011;19459;53.044;8.910;2022-10-16T16:46:38;14.38;;;6.05;;
33094;SDS011;19459;53.044;8.910;2022-10-16T16:49:05;14.98;;;5.47;;
33094;SDS011;19459;53.044;8.910;2022-10-16T16:51:32;12.20;;;4.40;;
33094;SDS011;19459;53.044;8.910;2022-10-16T16:53:58;12.30;;;3.90;;
33094;SDS011;19459;53.044;8.910;2022-10-16T16:56:25;10.48;;;3.58;;
33094;SDS011;19459;53.044;8.910;2022-10-16T16:58:52;7.95;;;2.60;;
33094;SDS011;19459;53.044;8.910;2022-10-16T17:01:20;9.55;;;2.50;;
33094;SDS011;19459;53.044;8.910;2022-10-16T17:03:47;8.70;;;3.22;;
33094;SDS011;19459;53.044;8.910;2022-10-16T17:06:16;6.88;;;2.65;;
33094;SDS011;19459;53.044;8.910;2022-10-16T17:08:44;9.10;;;3.65;;
33094;SDS011;19459;53.044;8.910;2022-10-16T17:11:14;8.27;;;3.08;;
33094;SDS011;19459;53.044;8.910;2022-10-16T17:13:46;7.32;;;3.05;;
33094;SDS011;19459;53.044;8.910;2022-10-16T17:16:12;9.75;;;2.88;;
33094;SDS011;19459;53.044;8.910;2022-10-16T17:18:38;13.70;;;3.13;;